Tiempo atmosférico en la estación meteorológica de Areso, Navarra (520 m.)



Fecha
DESCASC
Temp. máxima en grados centígrados (hora)
DESCASC
Temp. mínima en grados centígrados (hora)
DESCASC
Temp. media en grados centígrados
DESCASC
Racha de viento máxima en m/sg (hora)
DESCASC
Velocidad máxima media en intervalos de 10 minutos(hora)
DESCASC
Precipitaciones diarias en mm
DESCASC
Precipitaciones de 00:00 a 06:00 en mm
DESCASC
Precipitaciones de 06:00 a 12:00 en mm
DESCASC
Precipitaciones de 12:00 a 18:00 en mm
DESCASC
Precipitaciones de 18:00 a 24:00 en mm
DESCASC
27-01-2020 12.9 (22:20) 4.4 (01:20) 8.6 13.61 (22:00) 6.67 (22:20) 0.8 0 0 0.8 0
26-01-2020 12.8 (15:10) 4.2 (22:30) 8.5 4.17 (15:40) 2.22 (17:50) 3.4 3.2 0.2 0 0
25-01-2020 9.1 (12:20) 7.3 (00:00) 8.2 11.67 (16:40) 7.78 (16:30) 3.6 0 0 0 3.6
24-01-2020 11 (15:50) 6.6 (00:00) 8.8 14.72 (08:40) 7.5 (08:10) 0 0 0 0 0
23-01-2020 7.8 (13:10) 4.1 (00:00) 6 12.22 (23:50) 5.56 (23:20) 2.2 0 2.2 0 0
22-01-2020 10.9 (15:10) 2.2 (00:00) 6.5 3.89 (14:30) 1.67 (14:00) 0.6 0 0 0 0.6
21-01-2020 2.2 (23:50) -0.5 (-00:0) 0.9 3.06 (16:20) 1.39 (16:20) 0 0 0 0 0
20-01-2020 3.3 (15:00) -0.9 (-00:0) 1.2 12.78 (03:50) 3.89 (04:00) 0 0 0 0 0
19-01-2020 5 (05:00) 0.9 (00:00) 2.9 10.83 (19:40) 5 (20:40) 4.8 4.6 0.2 0 0
18-01-2020 9.6 (14:50) 2.2 (00:00) 5.9 16.94 (13:00) 9.44 (17:20) 15.4 0 0.2 0.8 14.4
17-01-2020 11.7 (00:00) 3.7 (00:00) 7.7 13.06 (00:50) 6.39 (00:40) 7 0 5.8 1.2 0
16-01-2020 13.6 (14:30) 8.5 (00:00) 11.1 15.83 (06:10) 9.72 (05:30) 0 0 0 0 0
15-01-2020 13.5 (15:20) 6.6 (00:00) 10 18.33 (01:40) 12.78 (02:00) 0 0 0 0 0
14-01-2020 10.7 (12:10) 5.9 (00:00) 8.3 16.67 (23:50) 9.72 (23:50) 0 0 0 0 0
13-01-2020 10.4 (15:20) 2.5 (00:00) 6.4 11.39 (20:40) 6.67 (14:00) 0 0 0 0 0
12-01-2020 10.9 (15:30) -0.6 (-00:0) 5.1 3.61 (13:30) 2.22 (13:40) 0 0 0 0 0
11-01-2020 10.9 (16:10) 0.6 (00:00) 5.7 2.5 (13:40) 1.39 (14:40) 0.2 0 0.2 0 0
10-01-2020 7.8 (14:40) 3.4 (00:00) 5.6 6.67 (15:10) 2.5 (15:10) 14.6 2.6 5.2 5.8 1
09-01-2020 11.9 (15:20) 6.6 (00:00) 9.2 16.67 (05:40) 10 (09:40) 6.2 0 0 0 6.2
08-01-2020 15.9 (14:40) 4.5 (00:00) 10.2 12.5 (23:59) 7.22 (23:59) 0 0 0 0 0
07-01-2020 15.3 (15:00) 2.1 (00:00) 8.7 2.22 (14:50) 1.11 (14:50) 0 0 0 0 0
06-01-2020 14.3 (14:40) -0.1 (00:00) 7.1 8.89 (09:40) 5.28 (09:40) 0.2 0.2 0 0 0
05-01-2020 11.7 (15:00) 0 (00:00) 5.8 3.89 (13:20) 1.67 (14:00) 0 0 0 0 0
04-01-2020 8.1 (14:40) 5.6 (00:00) 6.9 6.39 (09:10) 1.39 (15:20) 5.8 2.8 2 1 0
03-01-2020 9 (14:20) 1.4 (00:00) 5.2 2.5 (23:20) 0.83 (23:30) 1.8 0 0 1 0.8
02-01-2020 12.5 (13:10) 1.7 (00:00) 7.1 8.89 (09:50) 4.72 (09:40) 0 0 0 0 0
01-01-2020 12.3 (14:50) 2.2 (00:00) 7.3 2.5 (14:50) 1.67 (14:50) 0 0 0 0 0
31-12-2019 11.3 (15:10) 0.5 (00:00) 5.9 3.06 (13:30) 1.67 (14:10) 0 0 0 0 0
30-12-2019 -- (--) -- (--) -- -- (--) -- (--) -- 0 0 0 --
29-12-2019 13.8 (13:20) 2.9 (00:00) 8.4 5.28 (13:40) 3.33 (13:40) 0 0 0 0 0

Gráficas

Temp. máximas Temp. mínimas Temp. medias Precipitaciones Rachas de viento máximas Velocidades máximas media en intervalos de 10 minutos

Datos horarios

Fecha y hora oficial Temperatura (ºC) Velocidad del viento (km/h) Dirección del viento Racha (km/h) Dirección de racha Precipitación (mm) Presión (hPa) Tendencia (hPa) Humedad (%)
2020-01-27 23:00:00 12.7 18 Sudoeste 48 Oeste 0 -- -- 64
2020-01-27 22:00:00 12.6 20 Sudoeste 49 Sudoeste 0 -- -- 65
2020-01-27 21:00:00 12 12 Sudoeste 37 Sur 0 -- -- 68
2020-01-27 20:00:00 11.9 14 Sudoeste 44 Oeste 0 -- -- 68
2020-01-27 19:00:00 10.3 17 Sudoeste 35 Sur 0 -- -- 74
2020-01-27 18:00:00 9.4 17 Sur 38 Sur 0 -- -- 76
2020-01-27 17:00:00 8.6 17 Sudoeste 48 Sur 0 -- -- 79
2020-01-27 16:00:00 7.9 21 Sur 40 Sur 0.2 -- -- 83
2020-01-27 15:00:00 7.5 20 Sudoeste 36 Sudoeste 0.6 -- -- 83
2020-01-27 14:00:00 8.5 15 Sudoeste 32 Sudoeste 0 -- -- 72
2020-01-27 13:00:00 9.5 20 Sur 36 Sudoeste 0 -- -- 64
2020-01-27 12:00:00 10.2 21 Sudoeste 41 Sudoeste 0 -- -- 61
2020-01-27 11:00:00 10 19 Sudoeste 37 Sur 0 -- -- 60
2020-01-27 10:00:00 10 12 Sudoeste 31 Sudoeste 0 -- -- 60
2020-01-27 09:00:00 9.9 16 Sudoeste 32 Sudoeste 0 -- -- 60
2020-01-27 08:00:00 9 11 Sudoeste 29 Noroeste 0 -- -- 63
2020-01-27 07:00:00 9.9 12 Oeste 29 Sudoeste 0 -- -- 59
2020-01-27 06:00:00 9.1 13 Sudoeste 25 Sudoeste 0 -- -- 65
2020-01-27 05:00:00 7.9 9 Sudoeste 22 Sudoeste 0 -- -- 70
2020-01-27 04:00:00 7.7 6 Sudoeste 14 Sudoeste 0 -- -- 70
2020-01-27 03:00:00 6.9 2 Oeste 13 Sur 0 -- -- 71
2020-01-27 02:00:00 5.4 0 Calma 9 Sudeste 0 -- -- 78
2020-01-27 01:00:00 4.8 0 Calma 8 Sudoeste 0 -- -- 82
2020-01-27 00:00:00 4.5 0 Calma 8 Oeste 0 -- -- 82
2020-01-26 23:00:00 4.7 0 Calma 7 Oeste 0 -- -- 82
2020-01-26 22:00:00 4.3 0 Calma 7 Oeste 0 -- -- 86
2020-01-26 21:00:00 4.9 0 Calma 3 Noroeste 0 -- -- 84
2020-01-26 20:00:00 5.2 0 Calma 3 Noroeste 0 -- -- 84
2020-01-26 19:00:00 6.8 0 Calma 6 Noroeste 0 -- -- 79
2020-01-26 18:00:00 9.6 6 Oeste 13 Oeste 0 -- -- 65
2020-01-26 17:00:00 12 5 Oeste 10 Oeste 0 -- -- 53
2020-01-26 16:00:00 12.6 6 Noroeste 15 Noroeste 0 -- -- 51
2020-01-26 15:00:00 12.6 4 Noroeste 13 Noroeste 0 -- -- 55
2020-01-26 14:00:00 12.1 4 Noroeste 13 Sudoeste 0 -- -- 57
2020-01-26 13:00:00 12 3 Sudeste 12 Sur 0 -- -- 65
2020-01-26 12:00:00 10.3 3 Oeste 6 Oeste 0 -- -- 75
2020-01-26 11:00:00 7.8 0 Calma 3 Noroeste 0 -- -- 99
2020-01-26 10:00:00 5 0 Calma -- -- 0 -- -- 100
2020-01-26 09:00:00 4.7 0 Calma 2 Noroeste 0 -- -- 100
2020-01-26 08:00:00 4.8 0 Calma 2 Noroeste 0 -- -- 100
2020-01-26 07:00:00 5.7 0 Calma 4 Noroeste 0.2 -- -- 100
2020-01-26 06:00:00 6 4 Noroeste 5 Noroeste 0.2 -- -- 100
2020-01-26 05:00:00 6.1 0 Calma 2 Noroeste 0 -- -- 100
2020-01-26 04:00:00 6.4 0 Calma 4 Noroeste 0.4 -- -- 99
2020-01-26 03:00:00 6.6 0 Calma 8 Noroeste 1 -- -- 98
2020-01-26 02:00:00 6.8 0 Calma 4 Oeste 0.2 -- -- 100
2020-01-26 01:00:00 7 0 Calma 7 Oeste 1.4 -- -- 99
2020-01-26 00:00:00 7.4 3 Oeste 7 Oeste 2.4 -- -- 96
2020-01-25 23:00:00 7.6 2 Oeste 10 Oeste 0.6 -- -- 93
2020-01-25 22:00:00 8.1 5 Oeste 20 Sudoeste 0.6 -- -- 88
2020-01-25 21:00:00 8.3 10 Sur 22 Sudoeste 0 -- -- 86
2020-01-25 20:00:00 8.3 6 Sur 26 Sur 0 -- -- 85
2020-01-25 19:00:00 8.4 4 Sudeste 22 Sudeste 0 -- -- 84
2020-01-25 18:00:00 8.6 7 Sudoeste 28 Sur 0 -- -- 80
2020-01-25 17:00:00 8.6 15 Sur 42 Sur 0 -- -- 81
2020-01-25 16:00:00 8.6 24 Sur 40 Sudoeste 0 -- -- 81
2020-01-25 15:00:00 8.3 12 Sur 26 Sur 0 -- -- 83
2020-01-25 14:00:00 8.3 17 Sur 36 Sur 0 -- -- 81
2020-01-25 13:00:00 8.9 9 Sudoeste 31 Sur 0 -- -- 77
2020-01-25 12:00:00 8.9 11 Sur 27 Sur 0 -- -- 75
2020-01-25 11:00:00 9 4 Sudeste 24 Sur 0 -- -- 75
2020-01-25 10:00:00 8.2 15 Sur 28 Sur 0 -- -- 74
2020-01-25 09:00:00 7.6 14 Sudoeste 29 Sur 0 -- -- 75
2020-01-25 08:00:00 7.7 6 Sur 22 Sur 0 -- -- 76
2020-01-25 07:00:00 7.3 4 Sur 18 Este 0 -- -- 77
2020-01-25 06:00:00 8.1 14 Sur 34 Sudoeste 0 -- -- 74
2020-01-25 05:00:00 8.3 18 Sudoeste 36 Sur 0 -- -- 74
2020-01-25 04:00:00 8.2 16 Sur 39 Sur 0 -- -- 74
2020-01-25 03:00:00 8.4 24 Sur 39 Sur 0 -- -- 74
2020-01-25 02:00:00 8.2 17 Sur 35 Sur 0 -- -- 75
2020-01-25 01:00:00 8.3 19 Sur 37 Sur 0 -- -- 75
2020-01-25 00:00:00 8.5 23 Sur 38 Sudoeste 0 -- -- 75
2020-01-24 23:00:00 8.7 17 Sudoeste 35 Sur 0 -- -- 75
2020-01-24 22:00:00 8.7 9 Sudoeste 29 Sur 0 -- -- 74
2020-01-24 21:00:00 8.8 7 Sudoeste 17 Sudoeste 0 -- -- 74
2020-01-24 20:00:00 8.7 4 Sudoeste 13 Oeste 0 -- -- 77
2020-01-24 19:00:00 8.9 3 Sudoeste 9 Oeste 0 -- -- 77
2020-01-24 18:00:00 9.7 6 Sur 22 Sudoeste 0 -- -- 71
2020-01-24 17:00:00 10.2 12 Sudoeste 22 Sudoeste 0 -- -- 69
2020-01-24 16:00:00 10.8 11 Sudoeste 25 Sur 0 -- -- 68
2020-01-24 15:00:00 10.9 5 Sur 41 Sur 0 -- -- 70
2020-01-24 14:00:00 10.1 19 Sudoeste 41 Sudoeste 0 -- -- 71
2020-01-24 13:00:00 9.6 20 Sudoeste 43 Sur 0 -- -- 73
2020-01-24 12:00:00 9.3 19 Sur 46 Sudoeste 0 -- -- 73
2020-01-24 11:00:00 8.9 23 Sudoeste 43 Sudoeste 0 -- -- 76
2020-01-24 10:00:00 8 17 Sur 50 Sudoeste 0 -- -- 80
2020-01-24 09:00:00 7.4 26 Sudoeste 53 Sur 0 -- -- 82
2020-01-24 08:00:00 7.5 24 Sur 52 Sudoeste 0 -- -- 82
2020-01-24 07:00:00 7.5 21 Sur 40 Sudeste 0 -- -- 82
2020-01-24 06:00:00 7.4 20 Sur 42 Sur 0 -- -- 82
2020-01-24 05:00:00 7.2 23 Sur 42 Sudoeste 0 -- -- 82
2020-01-24 04:00:00 7 21 Sur 38 Sur 0 -- -- 83
2020-01-24 03:00:00 6.8 17 Sur 42 Sur 0 -- -- 83
2020-01-24 02:00:00 6.6 17 Sudoeste 40 Sur 0 -- -- 83
2020-01-24 01:00:00 6.7 21 Sur 39 Sur 0 -- -- 82
2020-01-24 00:00:00 6.6 16 Sur 44 Sudoeste 0 -- -- 82
2020-01-23 23:00:00 6.7 15 Sur 34 Sudoeste 0 -- -- 82
2020-01-23 22:00:00 6.7 16 Sur 39 Sur 0 -- -- 83
2020-01-23 21:00:00 6.6 10 Sur 35 Sudeste 0 -- -- 84
2020-01-23 20:00:00 6.6 15 Sur 35 Sur 0 -- -- 86
2020-01-23 19:00:00 6.8 17 Sur 40 Sur 0 -- -- 85
2020-01-23 18:00:00 6.9 13 Sur 35 Sur 0 -- -- 85
2020-01-23 17:00:00 7 6 Sur 27 Sudeste 0 -- -- 87
2020-01-23 16:00:00 7.1 17 Sur 34 Sudoeste 0 -- -- 87
2020-01-23 15:00:00 7 17 Sudoeste 28 Sudoeste 0 -- -- 88
2020-01-23 14:00:00 7.4 10 Sudoeste 26 Sudoeste 0 -- -- 86
2020-01-23 13:00:00 7.7 3 Oeste 14 Sur 0 -- -- 88
2020-01-23 12:00:00 7.1 4 Oeste 10 Oeste 0 -- -- 91
2020-01-23 11:00:00 6.3 3 Oeste 8 Sudoeste 0.2 -- -- 100
2020-01-23 10:00:00 5.7 0 Calma 3 Nordeste 0.6 -- -- 100
2020-01-23 09:00:00 5.7 0 Calma 6 Noroeste 0.8 -- -- 98
2020-01-23 08:00:00 6.1 0 Calma 9 Oeste 0.6 -- -- 94
2020-01-23 07:00:00 5.8 0 Calma 5 Sudoeste 0 -- -- 95
2020-01-23 06:00:00 6 0 Calma 11 Sudoeste 0 -- -- 92
2020-01-23 05:00:00 6.3 6 Oeste 14 Sur 0 -- -- 92
2020-01-23 04:00:00 5.3 2 Sudoeste 13 Sur 0 -- -- 96
2020-01-23 03:00:00 5.6 4 Oeste 9 Oeste 0 -- -- 97
2020-01-23 02:00:00 4.1 0 Calma 3 Noroeste 0 -- -- 100
2020-01-23 01:00:00 4.3 0 Calma 3 Noroeste 0 -- -- 100
2020-01-23 00:00:00 4.9 0 Calma 2 Nordeste 0 -- -- 100
2020-01-22 23:00:00 4.8 0 Calma 3 Nordeste 0 -- -- 100
2020-01-22 22:00:00 5 0 Calma 2 Nordeste 0 -- -- 100
2020-01-22 21:00:00 5.4 0 Calma 3 Noroeste 0 -- -- 99
2020-01-22 20:00:00 5.7 0 Calma 4 Norte 0 -- -- 98
2020-01-22 19:00:00 6.3 2 Nordeste 7 Sudeste 0.6 -- -- 95
2020-01-22 18:00:00 7.1 0 Calma 10 Nordeste 0 -- -- 86
2020-01-22 17:00:00 8 4 Norte 11 Noroeste 0 -- -- 82
2020-01-22 16:00:00 9.9 4 Nordeste 13 Noroeste 0 -- -- 74
2020-01-22 15:00:00 10.8 4 Este 14 Este 0 -- -- 72
2020-01-22 14:00:00 9.2 6 Nordeste 11 Este 0 -- -- 77
2020-01-22 13:00:00 7.5 2 Este 6 Este 0 -- -- 87
2020-01-22 12:00:00 6 0 Calma 5 Sudoeste 0 -- -- 92
2020-01-22 11:00:00 4.5 0 Calma 3 Oeste 0 -- -- 100
2020-01-22 10:00:00 3.5 0 Calma 3 Oeste 0 -- -- 100
2020-01-22 09:00:00 3 2 Oeste 4 Oeste 0 -- -- 100
2020-01-22 08:00:00 3.2 0 Calma 5 Oeste 0 -- -- 100
2020-01-22 07:00:00 3.2 0 Calma 4 Oeste 0 -- -- 100
2020-01-22 06:00:00 3.2 2 Oeste 3 Oeste 0 -- -- 100
2020-01-22 05:00:00 3.1 0 Calma 4 Oeste 0 -- -- 100
2020-01-22 04:00:00 3.1 0 Calma 5 Oeste 0 -- -- 100
2020-01-22 03:00:00 2.9 0 Calma 2 Oeste 0 -- -- 100
2020-01-22 02:00:00 2.7 0 Calma 5 Oeste 0 -- -- 100
2020-01-22 01:00:00 2.5 0 Calma 3 Norte 0 -- -- 100
2020-01-22 00:00:00 2.2 0 Calma 3 Norte 0 -- -- 100
2020-01-21 23:00:00 2 0 Calma 3 Norte 0 -- -- 98
2020-01-21 22:00:00 1.9 0 Calma 3 Sudeste 0 -- -- 97
2020-01-21 21:00:00 1.6 2 Sudeste 4 Este 0 -- -- 97
2020-01-21 20:00:00 1.5 0 Calma 2 Noroeste 0 -- -- 97
2020-01-21 19:00:00 1.4 0 Calma 3 Noroeste 0 -- -- 96
2020-01-21 18:00:00 1.4 3 Noroeste 5 Noroeste 0 -- -- 96
2020-01-21 17:00:00 1.5 0 Calma 11 Noroeste 0 -- -- 95
2020-01-21 16:00:00 1.5 3 Norte 6 Noroeste 0 -- -- 94
2020-01-21 15:00:00 1.6 2 Norte 8 Noroeste 0 -- -- 93
2020-01-21 14:00:00 1.5 3 Nordeste 8 Norte 0 -- -- 93
2020-01-21 13:00:00 1.6 2 Norte 7 Noroeste 0 -- -- 93
2020-01-21 12:00:00 1.4 2 Nordeste 10 Noroeste 0 -- -- 93
2020-01-21 11:00:00 0.9 0 Calma 7 Nordeste 0 -- -- 93
2020-01-21 10:00:00 0.3 0 Calma 6 Nordeste 0 -- -- 93
2020-01-21 09:00:00 0 0 Calma 2 Noroeste 0 -- -- 91
2020-01-21 08:00:00 -0.2 0 Calma 4 Noroeste 0 -- -- 91
2020-01-21 07:00:00 -0.3 0 Calma 2 Norte 0 -- -- 91
2020-01-21 06:00:00 -0.4 0 Calma 5 Nordeste 0 -- -- 89
2020-01-21 05:00:00 -0.3 0 Calma 6 Sudoeste 0 -- -- 86
2020-01-21 04:00:00 -0.3 0 Calma 7 Sudoeste 0 -- -- 86
2020-01-21 03:00:00 -0.1 0 Calma 10 Norte 0 -- -- 84
2020-01-21 02:00:00 -0.2 0 Calma 5 Oeste 0 -- -- 85
2020-01-21 01:00:00 -0.5 0 Calma 3 Norte 0 -- -- 86
2020-01-21 00:00:00 0.2 0 Calma 10 Norte 0 -- -- 80
2020-01-20 23:00:00 1.2 4 Norte 9 Norte 0 -- -- 75
2020-01-20 22:00:00 1.5 3 Nordeste 13 Nordeste 0 -- -- 74
2020-01-20 21:00:00 1.5 5 Nordeste 17 Norte 0 -- -- 73
2020-01-20 20:00:00 1.7 6 Nordeste 16 Este 0 -- -- 75
2020-01-20 19:00:00 1.2 0 Calma 9 Este 0 -- -- 78
2020-01-20 18:00:00 1.2 2 Este 14 Nordeste 0 -- -- 78
2020-01-20 17:00:00 1.3 5 Nordeste 19 Nordeste 0 -- -- 76
2020-01-20 16:00:00 2.1 5 Norte 16 Nordeste 0 -- -- 70
2020-01-20 15:00:00 3.3 3 Nordeste 17 Este 0 -- -- 69
2020-01-20 14:00:00 2.4 5 Nordeste 16 Nordeste 0 -- -- 68
2020-01-20 13:00:00 1.8 3 Norte 9 Norte 0 -- -- 72
2020-01-20 12:00:00 0.9 2 Nordeste 9 Nordeste 0 -- -- 75
2020-01-20 11:00:00 0.8 3 Nordeste 19 Este 0 -- -- 76
2020-01-20 10:00:00 -0.1 5 Nordeste 18 Nordeste 0 -- -- 78
2020-01-20 09:00:00 -0.6 5 Nordeste 15 Nordeste 0 -- -- 82
2020-01-20 08:00:00 -0.9 3 Nordeste 10 Norte 0 -- -- 84
2020-01-20 07:00:00 -0.5 3 Nordeste 15 Nordeste 0 -- -- 83
2020-01-20 06:00:00 -0.3 4 Norte 35 Nordeste 0 -- -- 83
2020-01-20 05:00:00 -0.2 5 Nordeste 30 Nordeste 0 -- -- 82
2020-01-20 04:00:00 0.1 14 Nordeste 46 Nordeste 0 -- -- 80
2020-01-20 03:00:00 0.3 8 Nordeste 26 Nordeste 0 -- -- 80
2020-01-20 02:00:00 0.3 9 Nordeste 30 Este 0 -- -- 79
2020-01-20 01:00:00 0.5 8 Nordeste 25 Nordeste 0 -- -- 79
2020-01-20 00:00:00 0.9 9 Nordeste 36 Este 0 -- -- 78
2020-01-19 23:00:00 1.4 8 Nordeste 28 Nordeste 0 -- -- 76
2020-01-19 22:00:00 1.7 14 Nordeste 37 Nordeste 0 -- -- 72
2020-01-19 21:00:00 2.3 9 Nordeste 38 Nordeste 0 -- -- 72
2020-01-19 20:00:00 2.9 12 Nordeste 39 Este 0 -- -- 67
2020-01-19 19:00:00 3 11 Nordeste 28 Nordeste 0 -- -- 66
2020-01-19 18:00:00 3.4 9 Nordeste 30 Este 0 -- -- 65
2020-01-19 17:00:00 4.2 10 Nordeste 32 Nordeste 0 -- -- 65
2020-01-19 16:00:00 4.5 6 Este 34 Este 0 -- -- 73
2020-01-19 15:00:00 4 10 Nordeste 28 Nordeste 0 -- -- 77
2020-01-19 14:00:00 5 5 Sudoeste 21 Sudeste 0 -- -- 79
2020-01-19 13:00:00 3.9 6 Sudeste 21 Este 0 -- -- 84
2020-01-19 12:00:00 3.4 4 Este 18 Este 0 -- -- 90
2020-01-19 11:00:00 3 6 Nordeste 23 Nordeste 0 -- -- 90
2020-01-19 10:00:00 2.9 3 Nordeste 13 Norte 0 -- -- 96
2020-01-19 09:00:00 3.5 4 Nordeste 19 Norte 0 -- -- 95
2020-01-19 08:00:00 3.9 3 Este 17 Nordeste 0 -- -- 94
2020-01-19 07:00:00 4.3 4 Nordeste 26 Este 0.2 -- -- 95
2020-01-19 06:00:00 4.8 9 Nordeste 27 Sudeste 0.2 -- -- 93
2020-01-19 05:00:00 5 6 Nordeste 32 Este 0.4 -- -- 100
2020-01-19 04:00:00 4.6 0 Calma 3 Nordeste 0.6 -- -- 100
2020-01-19 03:00:00 4.4 0 Calma 3 Nordeste 1.6 -- -- 100
2020-01-19 02:00:00 4.3 0 Calma 5 Nordeste 1.2 -- -- 100
2020-01-19 01:00:00 4.3 0 Calma 3 Oeste 0.6 -- -- 100
2020-01-19 00:00:00 4.3 0 Calma 2 Oeste 0.4 -- -- 99
2020-01-18 23:00:00 4.5 0 Calma 5 Sudoeste 1.6 -- -- 97
2020-01-18 22:00:00 4.9 0 Calma 7 Noroeste 2.2 -- -- 97
2020-01-18 21:00:00 5.4 4 Norte 14 Noroeste 3.4 -- -- 93
2020-01-18 20:00:00 6.3 3 Sudoeste 26 Noroeste 6.6 -- -- 91
2020-01-18 19:00:00 7.7 13 Sudoeste 56 Sur 0.2 -- -- 85
2020-01-18 18:00:00 7.5 31 Sudoeste 59 Sur 0.8 -- -- 84
2020-01-18 17:00:00 8.1 31 Sur 53 Sur 0 -- -- 81
2020-01-18 16:00:00 9.2 28 Sur 50 Sur 0 -- -- 69
2020-01-18 15:00:00 9.4 17 Sur 46 Sur 0 -- -- 65
2020-01-18 14:00:00 8.5 26 Sur 53 Sudeste 0 -- -- 66
2020-01-18 13:00:00 7.8 23 Sur 61 Sur 0 -- -- 67
2020-01-18 12:00:00 8.1 20 Sur 44 Sudoeste 0 -- -- 66
2020-01-18 11:00:00 7.4 14 Sur 34 Sudoeste 0.2 -- -- 66
2020-01-18 10:00:00 6.3 14 Sudoeste 35 Sur 0 -- -- 71
2020-01-18 09:00:00 5.7 16 Sudoeste 30 Sudoeste 0 -- -- 75
2020-01-18 08:00:00 5.4 8 Sudoeste 26 Sudoeste 0 -- -- 76
2020-01-18 07:00:00 5.7 5 Sudoeste 19 Oeste 0 -- -- 77
2020-01-18 06:00:00 5.4 4 Oeste 16 Oeste 0 -- -- 80
2020-01-18 05:00:00 4.2 0 Calma 11 Sudeste 0 -- -- 94
2020-01-18 04:00:00 2.5 0 Calma 4 Oeste 0 -- -- 100
2020-01-18 03:00:00 2.3 0 Calma 2 Oeste 0 -- -- 100
2020-01-18 02:00:00 2.6 0 Calma 0 Calma 0 -- -- 100
2020-01-18 01:00:00 3.2 0 Calma 4 Sudoeste 0 -- -- 100
2020-01-18 00:00:00 3.7 0 Calma 3 Noroeste 0 -- -- 100
2020-01-17 23:00:00 4 0 Calma 3 Este 0 -- -- 100
2020-01-17 22:00:00 3.7 0 Calma 3 Este 0 -- -- 100
2020-01-17 21:00:00 4.3 0 Calma 5 Norte 0 -- -- 100
2020-01-17 20:00:00 4.7 0 Calma 5 Norte 0 -- -- 99
2020-01-17 19:00:00 5 0 Calma 10 Nordeste 0 -- -- 99
2020-01-17 18:00:00 5.7 2 Este 5 Este 0 -- -- 97
2020-01-17 17:00:00 6.4 0 Calma 7 Nordeste 0.4 -- -- 94
2020-01-17 16:00:00 7.1 3 Noroeste 9 Noroeste 0.6 -- -- 87
2020-01-17 15:00:00 7.5 2 Sudeste 15 Noroeste 0 -- -- 83
2020-01-17 14:00:00 7.6 3 Este 12 Sudeste 0 -- -- 87
2020-01-17 13:00:00 6.7 3 Noroeste 13 Sur 0.2 -- -- 89
2020-01-17 12:00:00 6.8 5 Sudoeste 14 Sudoeste 0.4 -- -- 90
2020-01-17 11:00:00 6.3 3 Sudeste 10 Sur 2.6 -- -- 95
2020-01-17 10:00:00 6.4 3 Nordeste 16 Este 1.4 -- -- 97
2020-01-17 09:00:00 7.6 4 Este 17 Noroeste 0.4 -- -- 92
2020-01-17 08:00:00 8.9 5 Oeste 30 Oeste 1 -- -- 81
2020-01-17 07:00:00 10.8 8 Oeste 30 Sudoeste 0 -- -- 62
2020-01-17 06:00:00 10.6 14 Sudoeste 35 Oeste 0 -- -- 62
2020-01-17 05:00:00 11 15 Sudoeste 35 Sudoeste 0 -- -- 59
2020-01-17 04:00:00 11 20 Sudoeste 35 Sudoeste 0 -- -- 60
2020-01-17 03:00:00 10.7 16 Sudoeste 27 Sudoeste 0 -- -- 65
2020-01-17 02:00:00 11.4 15 Sudoeste 39 Sudoeste 0 -- -- 61
2020-01-17 01:00:00 11.5 19 Sudoeste 47 Sudeste 0 -- -- 61
2020-01-17 00:00:00 11.7 18 Sur 44 Sur 0 -- -- 55
2020-01-16 23:00:00 11.3 24 Sur 44 Sur 0 -- -- 62
2020-01-16 22:00:00 11.5 21 Sur 50 Sur 0 -- -- 64
2020-01-16 21:00:00 12.1 26 Sur 49 Sur 0 -- -- 64
2020-01-16 20:00:00 12.1 29 Sur 51 Sur 0 -- -- 66
2020-01-16 19:00:00 12.4 28 Sur 55 Sur 0 -- -- 66
2020-01-16 18:00:00 12.6 17 Sudoeste 42 Sudoeste 0 -- -- 67
2020-01-16 17:00:00 12.9 26 Sur 51 Sur 0 -- -- 66
2020-01-16 16:00:00 12.5 24 Sur 49 Sur 0 -- -- 67
2020-01-16 15:00:00 12.4 17 Sudoeste 44 Sur 0 -- -- 66
2020-01-16 14:00:00 13.1 15 Sur 36 Sur 0 -- -- 65
2020-01-16 13:00:00 12.2 21 Sur 49 Sur 0 -- -- 68
2020-01-16 12:00:00 11.1 17 Sur 54 Sur 0 -- -- 72
2020-01-16 11:00:00 9.8 27 Sudoeste 48 Sudoeste 0 -- -- 74
2020-01-16 10:00:00 8.9 21 Sur 51 Sur 0 -- -- 77
2020-01-16 09:00:00 8.7 26 Sur 46 Sur 0 -- -- 77
2020-01-16 08:00:00 8.8 13 Sudoeste 47 Sudoeste 0 -- -- 76
2020-01-16 07:00:00 9.1 24 Sur 57 Sur 0 -- -- 73
2020-01-16 06:00:00 9 31 Sur 52 Sur 0 -- -- 73
2020-01-16 05:00:00 9.2 33 Sudoeste 49 Sur 0 -- -- 72
2020-01-16 04:00:00 8.5 18 Sudoeste 51 Sur 0 -- -- 74
2020-01-16 03:00:00 8.6 24 Sur 44 Sudoeste 0 -- -- 73
2020-01-16 02:00:00 8.9 22 Sudoeste 39 Sudoeste 0 -- -- 71
2020-01-16 01:00:00 9.5 14 Sur 39 Sudoeste 0 -- -- 70
2020-01-16 00:00:00 9.1 10 Sudoeste 27 Sudoeste 0 -- -- 70
2020-01-15 23:00:00 9.3 12 Sudoeste 30 Sudoeste 0 -- -- 68
2020-01-15 22:00:00 9.1 9 Oeste 21 Sudoeste 0 -- -- 69
2020-01-15 21:00:00 8.8 4 Oeste 17 Oeste 0 -- -- 71
2020-01-15 20:00:00 8.3 0 Calma 17 Oeste 0 -- -- 73
2020-01-15 19:00:00 8.9 0 Calma 16 Oeste 0 -- -- 71
2020-01-15 18:00:00 10.2 8 Sudoeste 23 Sudoeste 0 -- -- 65
2020-01-15 17:00:00 11.9 14 Sudoeste 26 Sudoeste 0 -- -- 59
2020-01-15 16:00:00 12.8 12 Sudoeste 35 Sudoeste 0 -- -- 56
2020-01-15 15:00:00 12.7 10 Sudoeste 34 Sudoeste 0 -- -- 56
2020-01-15 14:00:00 9.1 15 Sudoeste 38 Sudoeste 0 -- -- 67
2020-01-15 13:00:00 9.1 24 Sudoeste 48 Sur 0 -- -- 66
2020-01-15 12:00:00 9.7 21 Sudoeste 49 Sur 0 -- -- 63
2020-01-15 11:00:00 8.6 22 Sur 45 Sudoeste 0 -- -- 67
2020-01-15 10:00:00 8 22 Sur 49 Sur 0 -- -- 67
2020-01-15 09:00:00 7.7 16 Sudoeste 41 Sudoeste 0 -- -- 67
2020-01-15 08:00:00 6.9 22 Sur 55 Sudoeste 0 -- -- 70
2020-01-15 07:00:00 7.4 18 Sur 37 Sur 0 -- -- 66
2020-01-15 06:00:00 7.3 17 Sudoeste 54 Sudoeste 0 -- -- 66
2020-01-15 05:00:00 6.7 32 Sur 51 Sur 0 -- -- 68
2020-01-15 04:00:00 7 24 Sudoeste 61 Sudoeste 0 -- -- 65
2020-01-15 03:00:00 7.2 36 Sudoeste 66 Sudoeste 0 -- -- 63
2020-01-15 02:00:00 7.5 46 Sudoeste 66 Sur 0 -- -- 62
2020-01-15 01:00:00 7.7 36 Sur 60 Sur 0 -- -- 62
2020-01-15 00:00:00 7.3 33 Sur 60 Sudoeste 0 -- -- 63
2020-01-14 23:00:00 7.1 23 Sudoeste 38 Sudoeste 0 -- -- 64
2020-01-14 22:00:00 6.3 6 Sudeste 37 Sur 0 -- -- 67
2020-01-14 21:00:00 6.9 16 Sur 42 Sur 0 -- -- 63
2020-01-14 20:00:00 6.6 12 Sur 38 Sur 0 -- -- 63
2020-01-14 19:00:00 6.8 13 Sur 39 Sur 0 -- -- 62
2020-01-14 18:00:00 8 21 Sur 43 Sur 0 -- -- 59
2020-01-14 17:00:00 8.7 20 Sur 55 Sur 0 -- -- 56
2020-01-14 16:00:00 10.6 35 Sur 53 Sur 0 -- -- 51
2020-01-14 15:00:00 9.9 25 Sur 44 Sur 0 -- -- 54
2020-01-14 14:00:00 10.2 23 Sur 49 Sudoeste 0 -- -- 56
2020-01-14 13:00:00 10.7 27 Sur 54 Sudoeste 0 -- -- 58
2020-01-14 12:00:00 10.3 8 Sudoeste 48 Sur 0 -- -- 63
2020-01-14 11:00:00 9.8 9 Sudoeste 29 Sudoeste 0 -- -- 63
2020-01-14 10:00:00 6.9 20 Sudoeste 44 Sudoeste 0 -- -- 70
2020-01-14 09:00:00 6.1 17 Sudoeste 33 Sudoeste 0 -- -- 72
2020-01-14 08:00:00 6 13 Sudoeste 39 Sur 0 -- -- 71
2020-01-14 07:00:00 6.5 17 Sudoeste 40 Sur 0 -- -- 67
2020-01-14 06:00:00 6.6 12 Sudoeste 33 Sur 0 -- -- 65
2020-01-14 05:00:00 6.7 13 Sudoeste 46 Sudoeste 0 -- -- 61
2020-01-14 04:00:00 7.3 21 Sudoeste 39 Sur 0 -- -- 55
2020-01-14 03:00:00 8.9 4 Sudeste 31 Sur 0 -- -- 50
2020-01-14 02:00:00 7.7 14 Sur 32 Sudoeste 0 -- -- 53
2020-01-14 01:00:00 7.4 13 Sudoeste 35 Sudoeste 0 -- -- 52
2020-01-14 00:00:00 6.9 12 Sudoeste 33 Sudoeste 0 -- -- 52
2020-01-13 23:00:00 7.2 16 Sudoeste 40 Sudoeste 0 -- -- 49
2020-01-13 22:00:00 7.7 12 Sudoeste 35 Sur 0 -- -- 48
2020-01-13 21:00:00 8.2 21 Sudoeste 41 Sur 0 -- -- 48
2020-01-13 20:00:00 8 10 Sudoeste 28 Sur 0 -- -- 48
2020-01-13 19:00:00 7.9 10 Sur 34 Sudoeste 0 -- -- 53
2020-01-13 18:00:00 8.2 10 Sudoeste 32 Sur 0 -- -- 51
2020-01-13 17:00:00 9.8 16 Sudoeste 38 Sur 0 -- -- 48
2020-01-13 16:00:00 10.2 16 Sudoeste 33 Sudoeste 0 -- -- 46
2020-01-13 15:00:00 10.3 20 Sudoeste 37 Sudoeste 0 -- -- 48
2020-01-13 14:00:00 9.1 24 Sudoeste 39 Sudoeste 0 -- -- 57
2020-01-13 13:00:00 9.2 14 Sudoeste 24 Sur 0 -- -- 58
2020-01-13 12:00:00 8.6 10 Oeste 20 Sudoeste 0 -- -- 58
2020-01-13 11:00:00 7.5 6 Oeste 19 Sudoeste 0 -- -- 62
2020-01-13 10:00:00 5.9 7 Oeste 14 Oeste 0 -- -- 71
2020-01-13 09:00:00 4 0 Calma 13 Sudoeste 0 -- -- 86
2020-01-13 08:00:00 3.4 0 Calma 9 Oeste 0 -- -- 94
2020-01-13 07:00:00 2.9 0 Calma 5 Noroeste 0 -- -- 100
2020-01-13 06:00:00 2.7 0 Calma 2 Norte 0 -- -- 100
2020-01-13 05:00:00 2.6 0 Calma 4 Noroeste 0 -- -- 100
2020-01-13 04:00:00 2.8 0 Calma -- -- 0 -- -- 100
2020-01-13 03:00:00 2.8 0 Calma 0 Calma 0 -- -- 100
2020-01-13 02:00:00 2.7 0 Calma 2 Norte 0 -- -- 100
2020-01-13 01:00:00 2.7 0 Calma 0 Calma 0 -- -- 100
2020-01-13 00:00:00 2.5 0 Calma 0 Calma 0 -- -- 100
2020-01-12 23:00:00 2.4 0 Calma 0 Calma 0 -- -- 98
2020-01-12 22:00:00 2.3 0 Calma 0 Calma 0 -- -- 96
2020-01-12 21:00:00 2.7 0 Calma 0 Calma 0 -- -- 94
2020-01-12 20:00:00 3.4 0 Calma 0 Calma 0 -- -- 91
2020-01-12 19:00:00 4.7 0 Calma 2 Norte 0 -- -- 86
2020-01-12 18:00:00 6.8 0 Calma 3 Norte 0 -- -- 78
2020-01-12 17:00:00 10.1 0 Calma 10 Este 0 -- -- 65
2020-01-12 16:00:00 10.3 5 Nordeste 12 Nordeste 0 -- -- 62
2020-01-12 15:00:00 10.5 4 Este 11 Este 0 -- -- 65
2020-01-12 14:00:00 10.2 6 Nordeste 13 Nordeste 0 -- -- 62
2020-01-12 13:00:00 9.6 4 Este 11 Nordeste 0 -- -- 67
2020-01-12 12:00:00 7.4 0 Calma 3 Sur 0 -- -- 85
2020-01-12 11:00:00 4.5 0 Calma 0 Calma 0 -- -- 97
2020-01-12 10:00:00 0.2 0 Calma -- -- 0 -- -- 100
2020-01-12 09:00:00 -0.5 0 Calma -- -- 0 -- -- 100
2020-01-12 08:00:00 -0.5 0 Calma 0 Calma 0 -- -- 100
2020-01-12 07:00:00 -0.5 0 Calma 0 Calma 0 -- -- 100
2020-01-12 06:00:00 -0.3 0 Calma -- -- 0 -- -- 100
2020-01-12 05:00:00 -0.2 0 Calma 0 Calma 0 -- -- 100
2020-01-12 04:00:00 -0.3 0 Calma 0 Calma 0 -- -- 100
2020-01-12 03:00:00 0.1 0 Calma 0 Calma 0 -- -- 100
2020-01-12 02:00:00 0.2 0 Calma 0 Calma 0 -- -- 100
2020-01-12 01:00:00 0.2 0 Calma 0 Calma 0 -- -- 100
2020-01-12 00:00:00 0.6 0 Calma 2 Sur 0 -- -- 100
2020-01-11 23:00:00 0.7 0 Calma -- -- 0 -- -- 100
2020-01-11 22:00:00 1.1 0 Calma 2 Sur 0 -- -- 99
2020-01-11 21:00:00 1.7 0 Calma 2 Sur 0 -- -- 98
2020-01-11 20:00:00 2.6 0 Calma 3 Sur 0 -- -- 96
2020-01-11 19:00:00 3.7 0 Calma 2 Sur 0 -- -- 91
2020-01-11 18:00:00 5.7 0 Calma 2 Sur 0 -- -- 84
2020-01-11 17:00:00 9.4 0 Calma 4 Sur 0 -- -- 70
2020-01-11 16:00:00 10.8 2 Sur 9 Sur 0 -- -- 65
2020-01-11 15:00:00 10.5 5 Sur 8 Sur 0 -- -- 64
2020-01-11 14:00:00 9.9 4 Sudoeste 9 Sudoeste 0 -- -- 66
2020-01-11 13:00:00 9.3 2 Sudoeste 7 Sudoeste 0 -- -- 75
2020-01-11 12:00:00 7.5 2 Norte 4 Norte 0 -- -- 83
2020-01-11 11:00:00 4.4 0 Calma 3 Norte 0 -- -- 100
2020-01-11 10:00:00 1.5 0 Calma 2 Norte 0 -- -- 100
2020-01-11 09:00:00 1.3 0 Calma 2 Norte 0 -- -- 100
2020-01-11 08:00:00 1.2 0 Calma 3 Norte 0.2 -- -- 100
2020-01-11 07:00:00 1.4 0 Calma 2 Norte 0 -- -- 100
2020-01-11 06:00:00 0.6 0 Calma 2 Norte 0 -- -- 100
2020-01-11 05:00:00 1.1 0 Calma 2 Norte 0 -- -- 100
2020-01-11 04:00:00 1.5 0 Calma 2 Norte 0 -- -- 100
2020-01-11 03:00:00 2.2 0 Calma 0 Calma 0 -- -- 100
2020-01-11 02:00:00 2.3 0 Calma 0 Calma 0 -- -- 100
2020-01-11 01:00:00 2.9 0 Calma 3 Norte 0 -- -- 100
2020-01-11 00:00:00 3.4 0 Calma 4 Norte 0 -- -- 99
2020-01-10 23:00:00 4.3 0 Calma 3 Nordeste 0 -- -- 98
2020-01-10 22:00:00 5.4 0 Calma 7 Nordeste 0 -- -- 98
2020-01-10 21:00:00 5.8 5 Este 13 Este 0 -- -- 98
2020-01-10 20:00:00 5.8 2 Nordeste 13 Nordeste 0.6 -- -- 100
2020-01-10 19:00:00 5.8 0 Calma 19 Nordeste 0.4 -- -- 98
2020-01-10 18:00:00 6 4 Sur 11 Sudoeste 1.8 -- -- 98
2020-01-10 17:00:00 6.5 3 Sudeste 10 Este 1 -- -- 93
2020-01-10 16:00:00 7.7 4 Sur 24 Este 0 -- -- 88
2020-01-10 15:00:00 7.3 6 Este 21 Este 0.8 -- -- 93
2020-01-10 14:00:00 7 4 Oeste 23 Nordeste 0.8 -- -- 96
2020-01-10 13:00:00 6.7 4 Sudoeste 13 Sudoeste 1.4 -- -- 97
2020-01-10 12:00:00 6.7 4 Sur 17 Oeste 0.6 -- -- 97
2020-01-10 11:00:00 5.9 3 Sur 17 Nordeste 2.6 -- -- 98
2020-01-10 10:00:00 6 5 Sudoeste 17 Noroeste 1.2 -- -- 94
2020-01-10 09:00:00 6.1 4 Noroeste 18 Norte 0.8 -- -- 92
2020-01-10 08:00:00 5.8 4 Sudoeste 17 Norte 0 -- -- 92
2020-01-10 07:00:00 5.9 4 Oeste 16 Noroeste 0 -- -- 90
2020-01-10 06:00:00 5.7 2 Noroeste 15 Noroeste 1.2 -- -- 92
2020-01-10 05:00:00 5.7 0 Calma 10 Norte 0 -- -- 91
2020-01-10 04:00:00 6.4 3 Noroeste 17 Noroeste 0 -- -- 89
2020-01-10 03:00:00 6.4 2 Sudoeste 16 Oeste 1.2 -- -- 92
2020-01-10 02:00:00 6.6 4 Norte 15 Noroeste 0.2 -- -- 92
2020-01-10 01:00:00 6.5 0 Calma 18 Norte 0 -- -- 95
2020-01-10 00:00:00 6.6 0 Calma 11 Norte 0 -- -- 95
2020-01-09 23:00:00 6.7 0 Calma 10 Norte 1 -- -- 95
2020-01-09 22:00:00 7.1 0 Calma 8 Norte 0.8 -- -- 96
2020-01-09 21:00:00 7.4 0 Calma 8 Oeste 2.4 -- -- 96
2020-01-09 20:00:00 7.8 0 Calma 3 Oeste 0.4 -- -- 97
2020-01-09 19:00:00 8.2 0 Calma 33 Noroeste 1.6 -- -- 93
2020-01-09 18:00:00 10 4 Este 29 Sudoeste 0 -- -- 71
2020-01-09 17:00:00 9.9 17 Sudoeste 40 Sudoeste 0 -- -- 68
2020-01-09 16:00:00 11.7 16 Sudoeste 40 Sur 0 -- -- 60
2020-01-09 15:00:00 11.5 23 Sudoeste 48 Sur 0 -- -- 63
2020-01-09 14:00:00 10.7 27 Sudoeste 48 Sur 0 -- -- 66
2020-01-09 13:00:00 10.9 19 Sudoeste 47 Sudoeste 0 -- -- 66
2020-01-09 12:00:00 10.2 23 Sudoeste 43 Sudoeste 0 -- -- 66
2020-01-09 11:00:00 9.4 22 Sudoeste 50 Sudoeste 0 -- -- 67
2020-01-09 10:00:00 9.1 26 Sudoeste 56 Sudoeste 0 -- -- 69
2020-01-09 09:00:00 8.7 30 Sudoeste 48 Sur 0 -- -- 70
2020-01-09 08:00:00 8.9 22 Sudoeste 46 Sudoeste 0 -- -- 69
2020-01-09 07:00:00 9 22 Sudoeste 50 Sudoeste 0 -- -- 73
2020-01-09 06:00:00 8.5 28 Sudoeste 60 Sur 0 -- -- 75
2020-01-09 05:00:00 8.4 32 Sudoeste 53 Sudoeste 0 -- -- 76
2020-01-09 04:00:00 8.1 24 Sudoeste 50 Sudoeste 0 -- -- 78
2020-01-09 03:00:00 9 31 Sudoeste 58 Sudoeste 0 -- -- 76
2020-01-09 02:00:00 9.5 33 Sudoeste 50 Sudoeste 0 -- -- 72
2020-01-09 01:00:00 9.5 28 Sudoeste 55 Sudoeste 0 -- -- 71
2020-01-09 00:00:00 9.4 26 Sur 45 Sur 0 -- -- 69
2020-01-08 23:00:00 10.2 13 Sur 31 Sudeste 0 -- -- 62
2020-01-08 22:00:00 9.7 4 Sudoeste 15 Oeste 0 -- -- 59
2020-01-08 21:00:00 10.6 3 Oeste 13 Sur 0 -- -- 55
2020-01-08 20:00:00 10.1 3 Sudoeste 14 Oeste 0 -- -- 50
2020-01-08 19:00:00 9.8 0 Calma 7 Oeste 0 -- -- 52
2020-01-08 18:00:00 11.4 2 Sudoeste 10 Sudoeste 0 -- -- 63
2020-01-08 17:00:00 13.8 3 Oeste 7 Noroeste 0 -- -- 72
2020-01-08 16:00:00 15.5 3 Sudeste 9 Sur 0 -- -- 70
2020-01-08 15:00:00 15.6 4 Este 8 Sur 0 -- -- 67
2020-01-08 14:00:00 15.4 4 Nordeste 8 Nordeste 0 -- -- 65
2020-01-08 13:00:00 14.3 3 Sur 7 Sur 0 -- -- 78
2020-01-08 12:00:00 11.5 0 Calma 4 Oeste 0 -- -- 91
2020-01-08 11:00:00 8.4 0 Calma 3 Oeste 0 -- -- 100
2020-01-08 10:00:00 5.9 0 Calma 6 Noroeste 0 -- -- 100
2020-01-08 09:00:00 4.7 0 Calma -- -- 0 -- -- 100
2020-01-08 08:00:00 5.2 0 Calma 2 Oeste 0 -- -- 100
2020-01-08 07:00:00 5.4 0 Calma -- -- 0 -- -- 100
2020-01-08 06:00:00 5.6 0 Calma 2 Oeste 0 -- -- 100
2020-01-08 05:00:00 5.7 0 Calma 0 Calma 0 -- -- 100
2020-01-08 04:00:00 6.2 0 Calma 0 Calma 0 -- -- 100
2020-01-08 03:00:00 6.2 0 Calma 3 Sudoeste 0 -- -- 100
2020-01-08 02:00:00 5.8 0 Calma 2 Sudoeste 0 -- -- 100
2020-01-08 01:00:00 5.6 0 Calma -- -- 0 -- -- 100
2020-01-08 00:00:00 5.6 0 Calma -- -- 0 -- -- 100
2020-01-07 23:00:00 5.4 0 Calma -- -- 0 -- -- 99
2020-01-07 22:00:00 5.8 0 Calma -- -- 0 -- -- 98
2020-01-07 21:00:00 6.3 0 Calma 0 Calma 0 -- -- 96
2020-01-07 20:00:00 7.2 0 Calma 3 Sudoeste 0 -- -- 94
2020-01-07 19:00:00 8.3 0 Calma 3 Este 0 -- -- 88
2020-01-07 18:00:00 10.1 0 Calma 3 Noroeste 0 -- -- 82
2020-01-07 17:00:00 13 0 Calma 6 Sudoeste 0 -- -- 71
2020-01-07 16:00:00 15.1 3 Sudoeste 6 Sudoeste 0 -- -- 67
2020-01-07 15:00:00 15.3 3 Sur 8 Sur 0 -- -- 67
2020-01-07 14:00:00 14.7 0 Calma 5 Sudoeste 0 -- -- 70
2020-01-07 13:00:00 11.8 2 Sudoeste 6 Sudoeste 0 -- -- 75
2020-01-07 12:00:00 8.5 0 Calma 3 Sudoeste 0 -- -- 93
2020-01-07 11:00:00 6 0 Calma 2 Sudoeste 0 -- -- 100
2020-01-07 10:00:00 3.5 0 Calma 5 Sudoeste 0 -- -- 100
2020-01-07 09:00:00 2.9 0 Calma 5 Oeste 0 -- -- 100
2020-01-07 08:00:00 2.5 2 Oeste 4 Noroeste 0 -- -- 100
2020-01-07 07:00:00 2.2 0 Calma 2 Oeste 0 -- -- 100
2020-01-07 06:00:00 2.3 0 Calma 2 Oeste 0 -- -- 100
2020-01-07 05:00:00 2.5 0 Calma 0 Calma 0 -- -- 100
2020-01-07 04:00:00 3.2 0 Calma 0 Calma 0 -- -- 100
2020-01-07 03:00:00 3.6 0 Calma 5 Noroeste 0 -- -- 100
2020-01-07 02:00:00 3.3 0 Calma 2 Sudoeste 0 -- -- 100
2020-01-07 01:00:00 3.1 0 Calma 2 Sudoeste 0 -- -- 100
2020-01-07 00:00:00 3.5 0 Calma 2 Sudoeste 0 -- -- 98
2020-01-06 23:00:00 4.4 0 Calma 2 Sudoeste 0 -- -- 96
2020-01-06 22:00:00 5.4 0 Calma 4 Noroeste 0 -- -- 96
2020-01-06 21:00:00 5.3 0 Calma 4 Norte 0 -- -- 96
2020-01-06 20:00:00 4.9 0 Calma 4 Nordeste 0 -- -- 94
2020-01-06 19:00:00 6.1 0 Calma 8 Norte 0 -- -- 90
2020-01-06 18:00:00 7.5 3 Nordeste 15 Este 0 -- -- 86
2020-01-06 17:00:00 10 5 Nordeste 13 Nordeste 0 -- -- 67
2020-01-06 16:00:00 13.6 4 Sudoeste 11 Sur 0 -- -- 54
2020-01-06 15:00:00 14 6 Sudoeste 11 Sudoeste 0 -- -- 52
2020-01-06 14:00:00 13.8 6 Sur 12 Sudoeste 0 -- -- 48
2020-01-06 13:00:00 13 5 Sudoeste 10 Sudoeste 0 -- -- 48
2020-01-06 12:00:00 11.7 2 Sudoeste 10 Oeste 0 -- -- 59
2020-01-06 11:00:00 10.1 4 Sudoeste 19 Sudoeste 0 -- -- 58
2020-01-06 10:00:00 7.8 5 Sudoeste 32 Sudoeste 0 -- -- 64